Time;durP1;ratioP1;P1;durP2;ratioP2;P2;SDS_P1;SDS_P2;PMS_P1;PMS_P2;Temp;Humidity;BMP_temperature;BMP_pressure;BME280_temperature;BME280_humidity;BME280_pressure;Samples;Min_cycle;Max_cycle;Signal;HPM_P1;HPM_P2
2021/09/02 00:02:16;;;;;;;8.80;4.75;;;;;;;;;;5052946;28;20028;-39
2021/09/02 00:04:41;;;;;;;8.48;3.30;;;;;;;;;;5055144;28;20029;-42
2021/09/02 00:07:07;;;;;;;15.68;4.00;;;;;;;;;;5051328;28;20028;-40
2021/09/02 00:09:32;;;;;;;10.02;2.92;;;;;;;;;;5056219;28;20017;-39
2021/09/02 00:11:57;;;;;;;18.85;3.72;;;;;;;;;;5057844;28;20025;-38
2021/09/02 00:14:23;;;;;;;13.18;3.40;;;;;;;;;;5052429;28;20048;-39
2021/09/02 00:16:48;;;;;;;9.13;2.47;;;;;;;;;;5055691;28;20504;-40
2021/09/02 00:19:14;;;;;;;4.78;1.95;;;;;;;;;;5055225;28;20105;-39
2021/09/02 00:21:39;;;;;;;8.50;3.72;;;;;;;;;;5053817;28;20040;-38
2021/09/02 00:24:05;;;;;;;5.40;2.13;;;;;;;;;;5055686;28;20052;-39
2021/09/02 00:26:30;;;;;;;16.65;3.20;;;;;;;;;;5045282;28;20029;-39
2021/09/02 00:28:55;;;;;;;8.63;4.32;;;;;;;;;;5055393;28;20024;-39
2021/09/02 00:31:20;;;;;;;13.43;2.92;;;;;;;;;;5057073;28;20705;-40
2021/09/02 00:33:46;;;;;;;10.82;4.40;;;;;;;;;;5053590;28;20652;-38
2021/09/02 00:36:11;;;;;;;5.90;3.47;;;;;;;;;;5050771;28;20032;-40
2021/09/02 00:38:38;;;;;;;5.15;3.72;;;;;;;;;;5051224;28;20468;-39
2021/09/02 00:41:04;;;;;;;12.18;3.10;;;;;;;;;;5052906;28;20481;-38
2021/09/02 00:43:39;;;;;;;4.93;2.53;;;;;;;;;;5051189;28;20028;-39
2021/09/02 00:46:05;;;;;;;7.20;3.67;;;;;;;;;;5054452;28;20484;-39
2021/09/02 00:48:30;;;;;;;5.20;2.75;;;;;;;;;;5050272;28;20087;-39
2021/09/02 00:50:55;;;;;;;20.92;6.43;;;;;;;;;;5049696;28;20024;-38
2021/09/02 00:53:21;;;;;;;22.25;4.82;;;;;;;;;;5047930;28;20112;-38
2021/09/02 00:55:47;;;;;;;11.05;4.45;;;;;;;;;;5047761;28;20017;-38
2021/09/02 00:58:13;;;;;;;18.70;5.05;;;;;;;;;;5057605;28;20472;-39
2021/09/02 01:00:38;;;;;;;25.45;6.80;;;;;;;;;;5052776;28;20024;-38
2021/09/02 01:03:03;;;;;;;13.05;5.78;;;;;;;;;;5053018;28;20079;-38
2021/09/02 01:05:29;;;;;;;21.27;5.72;;;;;;;;;;5054277;28;20427;-38
2021/09/02 01:07:55;;;;;;;9.35;4.25;;;;;;;;;;5045931;28;20104;-38
2021/09/02 01:10:20;;;;;;;9.40;6.00;;;;;;;;;;5053215;28;20024;-38
2021/09/02 01:12:47;;;;;;;20.77;8.82;;;;;;;;;;5057160;28;20021;-38
2021/09/02 01:15:12;;;;;;;22.55;6.07;;;;;;;;;;5049841;28;20533;-38
2021/09/02 01:17:38;;;;;;;33.75;11.07;;;;;;;;;;5057828;28;20106;-38
2021/09/02 01:20:05;;;;;;;18.05;10.00;;;;;;;;;;5053728;28;20349;-38
2021/09/02 01:22:30;;;;;;;36.13;9.70;;;;;;;;;;5055682;28;20116;-39
2021/09/02 01:24:59;;;;;;;23.27;7.65;;;;;;;;;;5053563;28;20120;-38
2021/09/02 01:27:25;;;;;;;23.52;7.53;;;;;;;;;;5052353;28;20480;-39
2021/09/02 01:29:51;;;;;;;19.02;8.05;;;;;;;;;;5057292;28;20045;-38
2021/09/02 01:32:17;;;;;;;23.92;8.73;;;;;;;;;;5060519;28;20020;-38
2021/09/02 01:34:42;;;;;;;11.45;5.32;;;;;;;;;;5053417;28;20027;-38
2021/09/02 01:37:07;;;;;;;16.67;7.78;;;;;;;;;;5052928;28;20068;-38
2021/09/02 01:39:33;;;;;;;15.15;6.45;;;;;;;;;;5055907;28;20055;-38
2021/09/02 01:41:58;;;;;;;15.25;3.88;;;;;;;;;;5056747;28;20021;-38
2021/09/02 01:44:23;;;;;;;12.15;4.80;;;;;;;;;;5055935;28;20542;-38
2021/09/02 01:46:49;;;;;;;15.25;5.65;;;;;;;;;;5055261;28;20025;-38
2021/09/02 01:49:14;;;;;;;10.02;5.55;;;;;;;;;;5053377;28;20835;-38
2021/09/02 01:51:40;;;;;;;21.17;7.00;;;;;;;;;;5056933;28;20028;-38
2021/09/02 01:54:05;;;;;;;12.77;4.72;;;;;;;;;;5055552;28;20472;-37
2021/09/02 01:56:30;;;;;;;17.80;4.65;;;;;;;;;;5054163;28;20119;-37
2021/09/02 01:58:56;;;;;;;18.67;4.55;;;;;;;;;;5054207;28;20070;-38
2021/09/02 02:01:21;;;;;;;10.00;4.82;;;;;;;;;;5054959;28;20060;-38
2021/09/02 02:03:46;;;;;;;12.23;4.40;;;;;;;;;;5056811;28;20401;-37
2021/09/02 02:06:11;;;;;;;7.35;3.03;;;;;;;;;;5056969;28;20052;-37
2021/09/02 02:08:37;;;;;;;12.25;5.70;;;;;;;;;;5056040;28;20074;-37
2021/09/02 02:11:02;;;;;;;15.85;6.28;;;;;;;;;;5050040;28;20027;-38
2021/09/02 02:13:27;;;;;;;16.48;5.22;;;;;;;;;;5055667;28;20043;-38
2021/09/02 02:15:53;;;;;;;15.02;5.20;;;;;;;;;;5056794;28;20025;-38
2021/09/02 02:18:18;;;;;;;15.18;5.75;;;;;;;;;;5060710;28;20016;-38
2021/09/02 02:20:43;;;;;;;16.83;6.75;;;;;;;;;;5051872;28;20025;-40
2021/09/02 02:23:09;;;;;;;15.75;6.10;;;;;;;;;;5052932;28;20024;-39
2021/09/02 02:25:34;;;;;;;24.23;5.30;;;;;;;;;;5054152;28;20031;-39
2021/09/02 02:27:59;;;;;;;13.23;6.35;;;;;;;;;;5053931;28;20020;-40
2021/09/02 02:30:25;;;;;;;12.55;5.97;;;;;;;;;;5063171;28;20028;-38
2021/09/02 02:32:50;;;;;;;14.43;6.10;;;;;;;;;;5054433;28;20021;-38
2021/09/02 02:35:16;;;;;;;12.57;6.28;;;;;;;;;;5054044;28;20071;-38
2021/09/02 02:37:42;;;;;;;13.40;6.50;;;;;;;;;;5053136;28;20028;-38
2021/09/02 02:40:08;;;;;;;21.10;6.15;;;;;;;;;;5055646;28;20110;-38
2021/09/02 02:42:33;;;;;;;16.75;6.63;;;;;;;;;;5055383;28;20067;-38
2021/09/02 02:44:59;;;;;;;15.73;6.63;;;;;;;;;;5053319;28;20500;-37
2021/09/02 02:47:24;;;;;;;17.48;5.35;;;;;;;;;;5052615;28;20488;-40
2021/09/02 02:49:49;;;;;;;10.50;5.55;;;;;;;;;;5053928;28;20794;-38
2021/09/02 02:52:15;;;;;;;16.85;6.45;;;;;;;;;;5057112;28;20020;-35
2021/09/02 02:54:40;;;;;;;16.08;6.93;;;;;;;;;;5054386;28;20460;-36
2021/09/02 02:57:05;;;;;;;17.63;5.85;;;;;;;;;;5053487;28;20017;-37
2021/09/02 02:59:31;;;;;;;24.02;5.90;;;;;;;;;;5051648;28;20096;-36
2021/09/02 03:01:56;;;;;;;15.73;6.20;;;;;;;;;;5052917;28;20383;-36
2021/09/02 03:04:21;;;;;;;17.00;7.30;;;;;;;;;;5054493;28;20075;-39
2021/09/02 03:06:47;;;;;;;13.85;7.32;;;;;;;;;;5059037;28;20037;-38
2021/09/02 03:09:12;;;;;;;13.30;6.03;;;;;;;;;;5054767;28;20447;-38
2021/09/02 03:11:37;;;;;;;16.23;8.27;;;;;;;;;;5052722;28;20025;-35
2021/09/02 03:14:03;;;;;;;30.85;10.23;;;;;;;;;;5054369;28;20133;-35
2021/09/02 03:16:28;;;;;;;16.70;6.53;;;;;;;;;;5054499;28;20368;-35
2021/09/02 03:18:53;;;;;;;18.83;6.10;;;;;;;;;;5051965;28;20103;-34
2021/09/02 03:21:19;;;;;;;23.70;5.85;;;;;;;;;;5052659;28;20021;-34
2021/09/02 03:23:44;;;;;;;8.68;5.05;;;;;;;;;;5051529;28;20021;-37
2021/09/02 03:26:09;;;;;;;21.73;7.32;;;;;;;;;;5054448;28;20492;-36
2021/09/02 03:28:35;;;;;;;18.27;6.45;;;;;;;;;;5052469;28;20503;-37
2021/09/02 03:31:00;;;;;;;10.30;5.20;;;;;;;;;;5055731;28;20025;-36
2021/09/02 03:33:26;;;;;;;14.45;4.50;;;;;;;;;;5046567;28;20029;-36
2021/09/02 03:35:52;;;;;;;16.65;7.05;;;;;;;;;;5051754;28;20051;-36
2021/09/02 03:38:17;;;;;;;24.08;6.97;;;;;;;;;;5058107;28;20476;-36
2021/09/02 03:40:43;;;;;;;18.85;7.13;;;;;;;;;;5056297;28;20145;-36
2021/09/02 03:43:08;;;;;;;24.95;7.00;;;;;;;;;;5054821;28;20464;-36
2021/09/02 03:45:33;;;;;;;18.95;5.93;;;;;;;;;;5050426;28;20377;-36
2021/09/02 03:47:59;;;;;;;23.25;5.47;;;;;;;;;;5050893;28;20675;-36
2021/09/02 03:50:24;;;;;;;9.32;4.80;;;;;;;;;;5058194;28;20477;-36
2021/09/02 03:52:49;;;;;;;18.42;3.80;;;;;;;;;;5053502;28;20043;-36
2021/09/02 03:55:15;;;;;;;7.68;2.47;;;;;;;;;;5055794;28;20592;-36
2021/09/02 03:57:40;;;;;;;35.88;5.40;;;;;;;;;;5054994;28;20031;-36
2021/09/02 04:00:07;;;;;;;16.20;5.80;;;;;;;;;;5051775;28;20389;-36
2021/09/02 04:02:33;;;;;;;12.60;4.78;;;;;;;;;;5053325;28;20060;-37
2021/09/02 04:04:58;;;;;;;14.23;3.25;;;;;;;;;;5050631;28;20048;-36
2021/09/02 04:07:23;;;;;;;12.95;3.35;;;;;;;;;;5048833;28;20027;-36
2021/09/02 04:09:50;;;;;;;11.48;3.92;;;;;;;;;;5050571;28;20416;-36
2021/09/02 04:12:15;;;;;;;16.90;5.18;;;;;;;;;;5057439;28;20017;-37
2021/09/02 04:14:41;;;;;;;12.57;3.22;;;;;;;;;;5057966;28;20108;-36
2021/09/02 04:17:06;;;;;;;17.60;4.45;;;;;;;;;;5053738;28;20055;-36
2021/09/02 04:19:32;;;;;;;8.48;3.17;;;;;;;;;;5058411;28;20571;-37
2021/09/02 04:21:57;;;;;;;7.68;2.85;;;;;;;;;;5049762;28;20021;-37
2021/09/02 04:24:22;;;;;;;8.73;2.88;;;;;;;;;;5046694;28;20051;-36
2021/09/02 04:26:48;;;;;;;9.32;3.97;;;;;;;;;;5055499;28;20048;-37
2021/09/02 04:29:13;;;;;;;5.60;2.17;;;;;;;;;;5051039;28;20377;-36
2021/09/02 04:31:38;;;;;;;9.85;3.20;;;;;;;;;;5053346;28;20029;-37
2021/09/02 04:34:04;;;;;;;7.95;1.13;;;;;;;;;;5054116;28;20025;-37
2021/09/02 04:36:29;;;;;;;5.85;1.92;;;;;;;;;;5053418;28;20036;-37
2021/09/02 04:38:54;;;;;;;12.35;2.47;;;;;;;;;;5051992;28;20391;-37
2021/09/02 04:41:20;;;;;;;5.18;2.42;;;;;;;;;;5052730;28;20530;-37
2021/09/02 04:43:45;;;;;;;9.10;2.70;;;;;;;;;;5050937;28;20090;-37
2021/09/02 04:46:14;;;;;;;11.85;2.75;;;;;;;;;;5053757;28;20025;-37
2021/09/02 04:48:39;;;;;;;10.35;2.38;;;;;;;;;;5056494;28;20051;-38
2021/09/02 04:51:04;;;;;;;15.80;3.28;;;;;;;;;;5057178;28;20472;-38
2021/09/02 04:53:30;;;;;;;8.57;3.28;;;;;;;;;;5053706;28;20142;-37
2021/09/02 04:55:55;;;;;;;2.75;1.60;;;;;;;;;;5051688;28;20063;-38
2021/09/02 04:58:21;;;;;;;9.18;3.13;;;;;;;;;;5059146;28;20027;-38
2021/09/02 05:00:46;;;;;;;11.02;2.30;;;;;;;;;;5058266;28;20021;-38
2021/09/02 05:03:11;;;;;;;14.85;3.22;;;;;;;;;;5055444;28;20193;-38
2021/09/02 05:05:37;;;;;;;20.55;3.53;;;;;;;;;;5053565;28;20171;-38
2021/09/02 05:08:02;;;;;;;6.03;2.40;;;;;;;;;;5057303;28;20067;-37
2021/09/02 05:10:28;;;;;;;10.75;2.97;;;;;;;;;;5062258;28;20024;-39
2021/09/02 05:12:53;;;;;;;7.13;3.80;;;;;;;;;;5056495;28;20055;-38
2021/09/02 05:15:19;;;;;;;12.30;2.40;;;;;;;;;;5057223;28;20357;-38
2021/09/02 05:17:47;;;;;;;14.60;3.33;;;;;;;;;;5055210;28;20035;-37
2021/09/02 05:20:13;;;;;;;7.60;2.85;;;;;;;;;;5058134;28;20036;-37
2021/09/02 05:22:39;;;;;;;16.10;2.58;;;;;;;;;;5058322;28;20387;-37
2021/09/02 05:25:04;;;;;;;9.98;2.15;;;;;;;;;;5049697;28;20028;-37
2021/09/02 05:27:29;;;;;;;9.77;3.22;;;;;;;;;;5058599;28;20044;-37
2021/09/02 05:29:55;;;;;;;7.75;2.70;;;;;;;;;;5057544;28;20473;-38
2021/09/02 05:32:20;;;;;;;10.95;2.63;;;;;;;;;;5055107;28;20016;-37
2021/09/02 05:34:45;;;;;;;10.13;2.53;;;;;;;;;;5051154;28;20391;-36
2021/09/02 05:37:11;;;;;;;6.90;1.45;;;;;;;;;;5057911;28;20482;-36
2021/09/02 05:39:36;;;;;;;8.57;2.40;;;;;;;;;;5051454;28;20056;-36
2021/09/02 05:42:02;;;;;;;17.58;3.83;;;;;;;;;;5053406;28;20106;-36
2021/09/02 05:44:27;;;;;;;8.70;2.70;;;;;;;;;;5055073;28;20523;-36
2021/09/02 05:46:52;;;;;;;2.90;1.80;;;;;;;;;;5057302;28;20032;-36
2021/09/02 05:49:18;;;;;;;95.25;74.85;;;;;;;;;;5056327;28;20032;-36
2021/09/02 05:51:43;;;;;;;47.15;36.17;;;;;;;;;;5053626;28;20076;-36
2021/09/02 05:54:08;;;;;;;21.20;16.30;;;;;;;;;;5053817;28;20028;-36
2021/09/02 05:56:33;;;;;;;12.13;6.90;;;;;;;;;;5052169;28;20028;-36
2021/09/02 05:58:59;;;;;;;18.35;7.68;;;;;;;;;;5056373;28;20044;-36
2021/09/02 06:01:24;;;;;;;35.92;5.68;;;;;;;;;;5054231;28;20025;-36
2021/09/02 06:03:49;;;;;;;8.90;3.47;;;;;;;;;;5058707;28;20029;-36
2021/09/02 06:06:15;;;;;;;8.18;5.55;;;;;;;;;;5054629;28;20017;-35
2021/09/02 06:08:40;;;;;;;17.05;8.75;;;;;;;;;;5052910;28;20021;-36
2021/09/02 06:11:06;;;;;;;63.28;37.55;;;;;;;;;;5052493;28;20024;-35
2021/09/02 06:13:31;;;;;;;80.50;57.85;;;;;;;;;;5051119;28;20627;-36
2021/09/02 06:15:57;;;;;;;50.78;38.67;;;;;;;;;;5053194;28;20441;-36
2021/09/02 06:18:22;;;;;;;59.55;38.38;;;;;;;;;;5058613;28;20095;-38
2021/09/02 06:20:48;;;;;;;39.17;29.00;;;;;;;;;;5055883;28;20671;-38
2021/09/02 06:23:13;;;;;;;31.17;20.50;;;;;;;;;;5050295;28;20044;-38
2021/09/02 06:25:38;;;;;;;34.60;22.67;;;;;;;;;;5056746;28;20024;-37
2021/09/02 06:28:04;;;;;;;41.03;23.40;;;;;;;;;;5051243;28;20373;-37
2021/09/02 06:30:29;;;;;;;109.68;85.43;;;;;;;;;;5055578;28;20052;-37
2021/09/02 06:32:54;;;;;;;145.13;120.20;;;;;;;;;;5054603;28;20021;-38
2021/09/02 06:35:20;;;;;;;48.60;28.92;;;;;;;;;;5053620;28;20031;-37
2021/09/02 06:37:46;;;;;;;40.83;30.95;;;;;;;;;;5051870;28;20549;-38
2021/09/02 06:40:11;;;;;;;259.45;218.52;;;;;;;;;;5054566;28;20041;-37
2021/09/02 06:42:36;;;;;;;209.52;156.82;;;;;;;;;;5055070;28;20069;-38
2021/09/02 06:45:02;;;;;;;125.65;107.35;;;;;;;;;;5054065;28;20030;-37
2021/09/02 06:47:27;;;;;;;83.25;66.65;;;;;;;;;;5051305;28;20066;-35
2021/09/02 06:49:52;;;;;;;62.67;47.03;;;;;;;;;;5052676;28;20066;-35
2021/09/02 06:52:18;;;;;;;42.25;24.92;;;;;;;;;;5056289;28;20017;-35
2021/09/02 06:54:43;;;;;;;57.38;29.33;;;;;;;;;;5056406;28;20543;-36
2021/09/02 06:57:08;;;;;;;54.63;20.52;;;;;;;;;;5056540;28;20028;-35
2021/09/02 06:59:34;;;;;;;47.33;29.75;;;;;;;;;;5057369;28;20075;-35
2021/09/02 07:01:59;;;;;;;31.75;17.23;;;;;;;;;;5057488;28;20129;-35
2021/09/02 07:04:24;;;;;;;38.15;17.15;;;;;;;;;;5059073;28;20391;-35
2021/09/02 07:06:49;;;;;;;31.15;15.88;;;;;;;;;;5056495;28;20017;-35
2021/09/02 07:09:15;;;;;;;52.35;21.17;;;;;;;;;;5052157;28;20021;-35
2021/09/02 07:11:40;;;;;;;26.42;15.63;;;;;;;;;;5053575;28;20017;-34
2021/09/02 07:14:05;;;;;;;39.97;32.30;;;;;;;;;;5055920;28;20027;-39
2021/09/02 07:16:31;;;;;;;23.45;14.25;;;;;;;;;;5056897;28;20562;-35
2021/09/02 07:18:56;;;;;;;48.05;18.77;;;;;;;;;;5051925;28;20017;-36
2021/09/02 07:21:21;;;;;;;24.25;14.80;;;;;;;;;;5052540;28;20833;-36
2021/09/02 07:23:46;;;;;;;17.02;10.60;;;;;;;;;;5054407;28;20028;-36
2021/09/02 07:26:12;;;;;;;14.90;7.53;;;;;;;;;;5049854;28;20707;-38
2021/09/02 07:28:37;;;;;;;26.42;9.18;;;;;;;;;;5055176;28;20033;-35
2021/09/02 07:31:03;;;;;;;17.73;7.82;;;;;;;;;;5054679;28;20632;-34
2021/09/02 07:33:28;;;;;;;24.33;9.90;;;;;;;;;;5047832;28;20036;-36
2021/09/02 07:35:54;;;;;;;12.68;8.10;;;;;;;;;;5053560;28;20028;-36
2021/09/02 07:38:19;;;;;;;37.97;14.10;;;;;;;;;;5055543;28;20385;-36
2021/09/02 07:40:44;;;;;;;23.77;10.07;;;;;;;;;;5056503;28;20049;-37
2021/09/02 07:43:09;;;;;;;15.63;8.95;;;;;;;;;;5054082;28;20021;-37
2021/09/02 07:45:35;;;;;;;21.48;10.23;;;;;;;;;;5052963;28;20403;-36
2021/09/02 07:48:00;;;;;;;22.50;11.43;;;;;;;;;;5054133;28;20021;-36
2021/09/02 07:50:26;;;;;;;23.55;12.25;;;;;;;;;;5050398;28;20491;-36
2021/09/02 07:52:51;;;;;;;26.13;13.27;;;;;;;;;;5053539;28;20050;-37
2021/09/02 07:55:16;;;;;;;21.63;9.48;;;;;;;;;;5054959;28;20025;-36
2021/09/02 07:57:47;;;;;;;19.27;9.40;;;;;;;;;;5051286;28;20112;-35
2021/09/02 08:00:12;;;;;;;11.68;8.10;;;;;;;;;;5052271;28;20031;-35
2021/09/02 08:02:38;;;;;;;25.25;9.55;;;;;;;;;;5053171;28;20454;-36
2021/09/02 08:05:03;;;;;;;30.33;9.10;;;;;;;;;;5053225;28;20245;-36
2021/09/02 08:07:29;;;;;;;18.63;7.22;;;;;;;;;;5048167;28;20017;-36
2021/09/02 08:09:54;;;;;;;14.52;6.40;;;;;;;;;;5055517;28;20029;-37
2021/09/02 08:12:19;;;;;;;10.98;5.97;;;;;;;;;;5058348;28;20025;-39
2021/09/02 08:14:44;;;;;;;19.10;7.13;;;;;;;;;;5052606;28;20028;-37
2021/09/02 08:17:10;;;;;;;7.43;4.63;;;;;;;;;;5054645;28;20487;-36
2021/09/02 08:19:35;;;;;;;34.83;6.60;;;;;;;;;;5052610;28;20021;-36
2021/09/02 08:22:00;;;;;;;16.58;4.63;;;;;;;;;;5058238;28;20025;-37
2021/09/02 08:24:26;;;;;;;22.38;6.25;;;;;;;;;;5052797;28;20586;-38
2021/09/02 08:26:51;;;;;;;15.75;4.72;;;;;;;;;;5056645;28;20025;-36
2021/09/02 08:29:16;;;;;;;21.48;4.80;;;;;;;;;;5056985;28;20024;-37
2021/09/02 08:31:42;;;;;;;13.73;5.45;;;;;;;;;;5056435;28;20028;-37
2021/09/02 08:34:07;;;;;;;25.48;7.68;;;;;;;;;;5054760;28;20040;-38
2021/09/02 08:36:33;;;;;;;20.48;5.10;;;;;;;;;;5054418;28;20024;-37
2021/09/02 08:38:59;;;;;;;18.13;4.95;;;;;;;;;;5054070;28;20029;-37
2021/09/02 08:41:24;;;;;;;5.95;2.88;;;;;;;;;;5049202;28;20048;-37
2021/09/02 08:43:49;;;;;;;14.43;3.33;;;;;;;;;;5051425;28;20116;-37
2021/09/02 08:46:15;;;;;;;25.25;5.53;;;;;;;;;;5057562;28;20701;-37
2021/09/02 08:48:45;;;;;;;7.72;4.38;;;;;;;;;;5058203;28;20047;-37
2021/09/02 08:51:10;;;;;;;16.05;4.55;;;;;;;;;;5056688;28;20020;-38
2021/09/02 08:53:35;;;;;;;26.00;5.90;;;;;;;;;;5052760;28;20146;-37
2021/09/02 08:56:01;;;;;;;10.82;4.82;;;;;;;;;;5056471;28;20116;-37
2021/09/02 08:58:26;;;;;;;18.13;6.18;;;;;;;;;;5055549;28;20106;-37
2021/09/02 09:00:51;;;;;;;9.70;3.45;;;;;;;;;;5061151;28;20075;-37
2021/09/02 09:03:18;;;;;;;7.65;2.90;;;;;;;;;;5050262;28;20017;-37
2021/09/02 09:05:43;;;;;;;24.42;4.97;;;;;;;;;;5055261;28;20069;-37
2021/09/02 09:08:10;;;;;;;15.50;3.42;;;;;;;;;;5056436;28;20107;-38
2021/09/02 09:10:35;;;;;;;9.60;3.72;;;;;;;;;;5053484;28;20029;-37
2021/09/02 09:13:04;;;;;;;7.30;3.85;;;;;;;;;;5059697;28;20017;-37
2021/09/02 09:15:31;;;;;;;18.70;5.05;;;;;;;;;;5055202;28;20158;-37
2021/09/02 09:18:12;;;;;;;19.38;4.93;;;;;;;;;;5056527;28;21058;-37
2021/09/02 09:20:37;;;;;;;15.32;5.03;;;;;;;;;;5053114;28;20051;-39
2021/09/02 09:23:03;;;;;;;15.55;3.70;;;;;;;;;;5059688;28;20025;-38
2021/09/02 09:25:29;;;;;;;9.23;4.13;;;;;;;;;;5057724;28;20020;-38
2021/09/02 09:27:57;;;;;;;10.32;3.60;;;;;;;;;;5054403;28;21134;-38
2021/09/02 09:30:23;;;;;;;14.32;3.75;;;;;;;;;;5055421;28;20024;-38
2021/09/02 09:32:52;;;;;;;14.80;3.75;;;;;;;;;;5055629;28;20523;-38
2021/09/02 09:35:20;;;;;;;13.43;3.03;;;;;;;;;;5055564;28;20021;-38
2021/09/02 09:37:46;;;;;;;16.30;4.13;;;;;;;;;;5055798;28;20464;-40
2021/09/02 09:40:14;;;;;;;13.13;2.88;;;;;;;;;;5059813;28;20048;-39
2021/09/02 09:42:39;;;;;;;10.88;3.38;;;;;;;;;;5051519;28;20078;-40
2021/09/02 09:45:10;;;;;;;5.63;2.70;;;;;;;;;;5050489;28;20029;-39
2021/09/02 09:47:37;;;;;;;;;;;;;;;;;;5051468;28;20543;-41
2021/09/02 09:50:09;;;;;;;5.05;3.00;;;;;;;;;;5052545;28;19916;-39
2021/09/02 09:52:41;;;;;;;9.48;3.95;;;;;;;;;;5046603;28;20017;-39
2021/09/02 09:55:08;;;;;;;14.40;3.90;;;;;;;;;;5055937;28;20481;-40
2021/09/02 09:57:34;;;;;;;6.95;3.15;;;;;;;;;;5048167;28;20029;-41
2021/09/02 10:00:02;;;;;;;6.05;3.33;;;;;;;;;;5050986;28;20098;-42
2021/09/02 10:02:28;;;;;;;9.43;3.65;;;;;;;;;;5049015;28;20575;-40
2021/09/02 10:04:55;;;;;;;9.60;3.25;;;;;;;;;;5056756;28;20086;-42
2021/09/02 10:07:20;;;;;;;5.82;2.83;;;;;;;;;;5054479;28;20059;-41
2021/09/02 10:09:46;;;;;;;27.70;6.82;;;;;;;;;;5057431;28;20024;-40
2021/09/02 10:12:12;;;;;;;37.85;5.45;;;;;;;;;;5053471;28;20025;-39
2021/09/02 10:14:37;;;;;;;11.90;5.05;;;;;;;;;;5044299;28;20635;-41
2021/09/02 10:17:03;;;;;;;9.98;4.88;;;;;;;;;;5050466;28;20060;-46
2021/09/02 10:19:31;;;;;;;14.45;4.22;;;;;;;;;;5055657;28;20373;-60
2021/09/02 10:21:57;;;;;;;7.80;4.47;;;;;;;;;;5057673;28;20069;-60
2021/09/02 10:24:36;;;;;;;7.43;2.67;;;;;;;;;;5054269;28;20626;-56
2021/09/02 10:27:21;;;;;;;13.05;4.72;;;;;;;;;;5052442;28;20048;-55
2021/09/02 10:29:47;;;;;;;13.82;5.65;;;;;;;;;;5043812;28;20316;-59
2021/09/02 10:32:24;;;;;;;18.42;6.07;;;;;;;;;;5053511;28;20593;-56
2021/09/02 10:35:02;;;;;;;17.00;6.10;;;;;;;;;;5058358;28;20016;-56
2021/09/02 10:37:33;;;;;;;41.17;5.05;;;;;;;;;;5052270;28;20035;-56
2021/09/02 10:39:58;;;;;;;11.40;3.42;;;;;;;;;;5050103;28;20053;-58
2021/09/02 10:42:45;;;;;;;5.68;3.03;;;;;;;;;;5053323;28;20035;-56
2021/09/02 10:45:31;;;;;;;6.47;1.73;;;;;;;;;;5052012;28;20005;-54
2021/09/02 10:48:15;;;;;;;22.17;5.00;;;;;;;;;;5046730;28;20445;-50
2021/09/02 10:50:42;;;;;;;17.08;4.30;;;;;;;;;;5056695;28;20025;-53
2021/09/02 10:53:13;;;;;;;15.95;4.78;;;;;;;;;;5055969;28;20032;-34
2021/09/02 10:55:40;;;;;;;4.70;2.13;;;;;;;;;;5054562;28;20035;-34
2021/09/02 10:58:06;;;;;;;10.45;4.00;;;;;;;;;;5050909;28;20707;-34
2021/09/02 11:00:42;;;;;;;14.30;4.47;;;;;;;;;;5057319;28;20532;-33
2021/09/02 11:03:21;;;;;;;5.35;2.00;;;;;;;;;;5055338;28;20227;-33
2021/09/02 11:05:51;;;;;;;6.80;2.90;;;;;;;;;;5053933;28;20661;-34
2021/09/02 11:08:35;;;;;;;10.75;3.35;;;;;;;;;;5057428;28;20009;-33
2021/09/02 11:11:12;;;;;;;3.53;1.45;;;;;;;;;;5054141;28;20020;-35
2021/09/02 11:13:38;;;;;;;5.75;2.00;;;;;;;;;;5053842;28;20126;-35
2021/09/02 11:16:10;;;;;;;7.47;2.25;;;;;;;;;;5059226;28;20024;-34
2021/09/02 11:18:42;;;;;;;7.57;2.92;;;;;;;;;;5055299;28;20021;-34
2021/09/02 11:21:14;;;;;;;19.35;2.75;;;;;;;;;;5049645;28;20036;-35
2021/09/02 11:23:45;;;;;;;19.70;3.75;;;;;;;;;;5053149;28;20090;-35
2021/09/02 11:26:10;;;;;;;6.85;1.60;;;;;;;;;;5055133;28;20021;-34
2021/09/02 11:28:47;;;;;;;4.68;1.50;;;;;;;;;;5052769;28;20040;-34
2021/09/02 11:31:12;;;;;;;8.65;2.25;;;;;;;;;;5056950;28;20021;-35
2021/09/02 11:33:45;;;;;;;14.55;4.13;;;;;;;;;;5050315;28;20017;-35
2021/09/02 11:36:10;;;;;;;15.93;3.67;;;;;;;;;;5050901;28;20025;-35
2021/09/02 11:38:36;;;;;;;9.90;3.58;;;;;;;;;;5056008;28;20134;-34
2021/09/02 11:41:20;;;;;;;12.15;2.67;;;;;;;;;;5057061;28;20049;-35
2021/09/02 11:43:55;;;;;;;6.28;1.90;;;;;;;;;;5053515;28;20058;-38
2021/09/02 11:46:21;;;;;;;11.45;0.85;;;;;;;;;;5052489;28;20027;-34
2021/09/02 11:48:47;;;;;;;6.63;1.63;;;;;;;;;;5050934;28;20027;-36
2021/09/02 11:51:18;;;;;;;7.22;1.20;;;;;;;;;;5052346;28;20025;-36
2021/09/02 11:53:43;;;;;;;3.55;1.75;;;;;;;;;;5056378;28;20104;-35
2021/09/02 11:56:12;;;;;;;3.92;1.85;;;;;;;;;;5051005;28;20107;-35
2021/09/02 11:58:38;;;;;;;1.10;0.60;;;;;;;;;;5048208;28;20025;-35
2021/09/02 12:01:04;;;;;;;1.20;0.50;;;;;;;;;;5053949;28;20479;-35
2021/09/02 12:03:29;;;;;;;3.55;1.08;;;;;;;;;;5050430;28;20491;-35
2021/09/02 12:05:56;;;;;;;4.55;2.08;;;;;;;;;;5056945;28;20025;-35
2021/09/02 12:08:21;;;;;;;6.00;1.05;;;;;;;;;;5050085;28;20033;-36
2021/09/02 12:10:47;;;;;;;6.00;1.50;;;;;;;;;;5054979;28;20035;-35
2021/09/02 12:13:33;;;;;;;4.28;1.42;;;;;;;;;;5051444;28;20424;-35
2021/09/02 12:16:02;;;;;;;2.35;1.13;;;;;;;;;;5052474;28;20025;-35
2021/09/02 12:18:29;;;;;;;6.85;1.70;;;;;;;;;;5051151;28;20499;-36
2021/09/02 12:21:05;;;;;;;3.53;1.67;;;;;;;;;;5050029;28;20035;-35
2021/09/02 12:23:30;;;;;;;2.90;0.98;;;;;;;;;;5052309;28;20017;-35
2021/09/02 12:25:59;;;;;;;4.10;1.65;;;;;;;;;;5054168;28;20055;-35
2021/09/02 12:28:34;;;;;;;3.45;0.88;;;;;;;;;;5053327;28;20130;-35
2021/09/02 12:31:13;;;;;;;6.68;1.98;;;;;;;;;;5046570;28;20508;-35
2021/09/02 12:33:52;;;;;;;3.55;1.75;;;;;;;;;;5046190;28;20016;-35
2021/09/02 12:36:18;;;;;;;5.45;1.35;;;;;;;;;;5053328;28;20021;-36
2021/09/02 12:38:43;;;;;;;6.78;3.35;;;;;;;;;;5049410;28;20481;-35
2021/09/02 12:41:16;;;;;;;3.65;1.95;;;;;;;;;;5053294;28;20048;-35
2021/09/02 12:43:59;;;;;;;3.67;2.05;;;;;;;;;;5049879;28;20021;-35
2021/09/02 12:46:25;;;;;;;2.08;0.93;;;;;;;;;;5052437;28;20067;-35
2021/09/02 12:48:50;;;;;;;4.80;1.77;;;;;;;;;;5052526;28;20035;-35
2021/09/02 12:51:22;;;;;;;2.75;1.13;;;;;;;;;;5054408;28;20027;-36
2021/09/02 12:53:56;;;;;;;12.60;3.08;;;;;;;;;;5047460;28;20322;-35
2021/09/02 12:56:21;;;;;;;4.30;2.67;;;;;;;;;;5052787;28;20112;-35
2021/09/02 12:58:46;;;;;;;3.15;1.10;;;;;;;;;;5051430;28;20108;-36
2021/09/02 13:01:12;;;;;;;3.28;1.73;;;;;;;;;;5051734;28;20710;-35
2021/09/02 13:03:37;;;;;;;5.65;1.95;;;;;;;;;;5049930;28;20025;-35
2021/09/02 13:06:02;;;;;;;5.18;1.08;;;;;;;;;;5054473;28;20032;-35
2021/09/02 13:08:28;;;;;;;5.85;2.42;;;;;;;;;;5058923;28;20044;-36
2021/09/02 13:10:53;;;;;;;1.20;0.57;;;;;;;;;;5057750;28;20537;-35
2021/09/02 13:13:18;;;;;;;17.38;3.28;;;;;;;;;;5058503;28;20028;-36
2021/09/02 13:15:43;;;;;;;2.40;1.27;;;;;;;;;;5052259;28;20020;-35
2021/09/02 13:18:09;;;;;;;6.75;2.00;;;;;;;;;;5053298;28;20440;-36
2021/09/02 13:20:34;;;;;;;8.85;1.48;;;;;;;;;;5057147;28;20051;-36
2021/09/02 13:23:01;;;;;;;5.10;1.90;;;;;;;;;;5058639;28;20016;-36
2021/09/02 13:25:27;;;;;;;3.42;2.00;;;;;;;;;;5060290;28;20055;-37
2021/09/02 13:27:53;;;;;;;13.35;2.28;;;;;;;;;;5053540;28;20416;-37
2021/09/02 13:30:20;;;;;;;14.23;2.95;;;;;;;;;;5054671;28;20481;-36
2021/09/02 13:32:46;;;;;;;3.95;0.90;;;;;;;;;;5050689;28;20104;-36
2021/09/02 13:35:12;;;;;;;5.93;2.92;;;;;;;;;;5057339;28;20149;-36
2021/09/02 13:37:38;;;;;;;8.05;2.25;;;;;;;;;;5051942;28;20022;-36
2021/09/02 13:40:07;;;;;;;7.25;1.30;;;;;;;;;;5052129;28;20051;-36
2021/09/02 13:42:32;;;;;;;8.13;1.55;;;;;;;;;;5056489;28;20049;-36
2021/09/02 13:44:58;;;;;;;5.18;2.00;;;;;;;;;;5052782;28;20066;-35
2021/09/02 13:47:23;;;;;;;8.25;1.90;;;;;;;;;;5057017;28;20067;-37
2021/09/02 13:49:48;;;;;;;3.33;0.95;;;;;;;;;;5058860;28;20495;-37
2021/09/02 13:52:14;;;;;;;0.73;0.40;;;;;;;;;;5057642;28;20086;-37
2021/09/02 13:54:39;;;;;;;5.53;1.88;;;;;;;;;;5056004;28;20619;-37
2021/09/02 13:57:04;;;;;;;2.58;0.68;;;;;;;;;;5055017;28;20498;-36
2021/09/02 13:59:30;;;;;;;6.72;1.58;;;;;;;;;;5054480;28;20098;-36
2021/09/02 14:01:55;;;;;;;2.63;1.42;;;;;;;;;;5053603;28;20182;-37
2021/09/02 14:04:20;;;;;;;7.38;2.17;;;;;;;;;;5056753;28;20070;-35
2021/09/02 14:06:46;;;;;;;5.65;3.30;;;;;;;;;;5055088;28;20013;-35
2021/09/02 14:09:11;;;;;;;4.00;1.98;;;;;;;;;;5057112;28;20043;-35
2021/09/02 14:11:36;;;;;;;11.50;2.85;;;;;;;;;;5053052;28;20437;-35
2021/09/02 14:14:02;;;;;;;3.05;1.90;;;;;;;;;;5053843;28;20028;-35
2021/09/02 14:16:27;;;;;;;4.60;2.03;;;;;;;;;;5050218;28;20021;-35
2021/09/02 14:18:52;;;;;;;7.68;2.90;;;;;;;;;;5053466;28;20025;-35
2021/09/02 14:21:18;;;;;;;6.35;3.25;;;;;;;;;;5055172;28;20075;-36
2021/09/02 14:23:44;;;;;;;4.82;1.35;;;;;;;;;;5052801;28;20481;-36
2021/09/02 14:26:09;;;;;;;7.95;1.63;;;;;;;;;;5051702;28;20028;-39
2021/09/02 14:28:34;;;;;;;5.93;1.67;;;;;;;;;;5055600;28;20044;-36
2021/09/02 14:30:59;;;;;;;8.05;1.65;;;;;;;;;;5052056;28;20380;-37